Time;durP1;ratioP1;P1;durP2;ratioP2;P2;SDS_P1;SDS_P2;PMS_P1;PMS_P2;Temp;Humidity;BMP_temperature;BMP_pressure;BME280_temperature;BME280_humidity;BME280_pressure;Samples;Min_cycle;Max_cycle;Signal;HPM_P1;HPM_P2
2022/04/02 00:02:07;;;;;;;10.70;8.90;;;0.90;1.00;1.20;66503.00;;;;5100866;28;20467;-83
2022/04/02 00:05:05;;;;;;;15.10;9.37;;;1.10;1.00;1.20;99616.00;;;;5101762;28;20430;-83
2022/04/02 00:08:55;;;;;;;;;;;;;;;;;;;;;
2022/04/02 00:12:18;;;;;;;;;;;;;;;;;;;;;
2022/04/02 00:14:58;;;;;;;12.00;8.40;;;1.00;1.00;217.30;157204.00;;;;5103962;28;20481;-83
2022/04/02 00:17:27;;;;;;;9.00;7.57;;;1.10;1.00;1.20;99626.00;;;;5087813;28;20460;-82
2022/04/02 00:19:57;;;;;;;11.63;6.73;;;1.30;1.00;1.20;99651.00;;;;5114534;28;20453;-84
2022/04/02 00:22:25;;;;;;;7.57;6.33;;;1.10;1.00;1.20;99654.00;;;;5116254;28;20446;-82
2022/04/02 00:24:53;;;;;;;9.73;7.23;;;1.00;1.00;1.20;99642.00;;;;5115740;28;20468;-81
2022/04/02 00:27:21;;;;;;;8.83;7.87;;;1.00;1.00;1.20;99616.00;;;;5114993;28;20573;-82
2022/04/02 00:29:50;;;;;;;7.63;6.83;;;1.00;1.00;1.20;99632.00;;;;5120604;28;20481;-82
2022/04/02 00:32:18;;;;;;;8.37;5.70;;;1.10;1.00;1.20;99631.00;;;;5123343;28;20439;-81
2022/04/02 00:34:47;;;;;;;7.00;6.30;;;1.00;1.00;1.20;99587.00;;;;5122243;28;20542;-82
2022/04/02 00:37:21;;;;;;;7.60;6.20;;;1.00;1.00;1.20;99598.00;;;;5127035;27;20514;-82
2022/04/02 00:39:50;;;;;;;6.77;6.03;;;1.00;1.00;1.20;99614.00;;;;5122543;27;20524;-81
2022/04/02 00:42:18;;;;;;;7.00;6.30;;;0.70;1.00;1.20;99608.00;;;;5099854;28;20454;-81
2022/04/02 00:44:46;;;;;;;7.00;6.30;;;1.00;1.00;1.20;99623.00;;;;5117699;27;20454;-80
2022/04/02 00:47:15;;;;;;;6.70;5.63;;;1.00;1.00;1.20;99588.00;;;;5099291;28;20526;-81
2022/04/02 00:49:44;;;;;;;6.20;3.33;;;1.00;1.00;1.10;99617.00;;;;5103944;28;20469;-81
2022/04/02 00:52:12;;;;;;;10.52;6.68;;;1.00;1.00;52.70;157188.00;;;;5101348;28;21065;-81
2022/04/02 00:54:42;;;;;;;8.40;7.40;;;1.20;1.00;1.20;99602.00;;;;5101947;28;21320;-81
2022/04/02 00:57:10;;;;;;;10.23;8.03;;;1.20;1.00;1.20;99620.00;;;;5102698;28;20476;-81
2022/04/02 00:59:39;;;;;;;10.52;8.20;;;1.30;1.00;1.20;99616.00;;;;5101342;28;20913;-82
2022/04/02 01:02:07;;;;;;;10.43;7.40;;;1.20;1.00;1.20;99615.00;;;;5100384;28;20410;-81
2022/04/02 01:04:35;;;;;;;12.43;9.60;;;1.20;1.00;1.30;99602.00;;;;5097672;28;20424;-81
2022/04/02 01:07:04;;;;;;;11.32;8.50;;;1.30;1.00;1.30;99614.00;;;;5116954;27;20423;-81
2022/04/02 01:09:33;;;;;;;9.18;7.50;;;1.30;1.00;1.30;66532.00;;;;5098574;28;20434;-81
2022/04/02 01:12:04;;;;;;;9.02;8.10;;;1.20;1.00;217.30;157178.00;;;;5096299;28;20435;-82
2022/04/02 01:14:36;;;;;;;8.05;6.93;;;1.10;1.00;1.20;99619.00;;;;5083974;28;20429;-81
2022/04/02 01:17:17;;;;;;;11.20;8.70;;;1.20;1.00;1.20;99591.00;;;;5113340;27;20427;-81
2022/04/02 01:19:47;;;;;;;10.95;8.75;;;1.20;1.00;217.30;157208.00;;;;5112757;27;20485;-81
2022/04/02 01:22:25;;;;;;;8.55;6.70;;;1.40;1.00;1.20;99607.00;;;;5097163;28;20408;-81
2022/04/02 01:24:55;;;;;;;9.52;7.05;;;1.20;1.00;1.20;99608.00;;;;5096422;28;20434;-81
2022/04/02 01:27:28;;;;;;;10.82;7.50;;;1.10;1.00;1.20;99612.00;;;;5113138;27;20422;-81
2022/04/02 01:30:01;;;;;;;8.70;7.40;;;1.10;1.00;1.20;99623.00;;;;5099538;28;20457;-81
2022/04/02 01:32:31;;;;;;;9.43;7.50;;;1.10;1.00;1.20;99617.00;;;;5099329;28;20541;-81
2022/04/02 01:35:11;;;;;;;9.77;7.75;;;1.10;1.00;1.30;99618.00;;;;5102339;28;20420;-80
2022/04/02 01:37:45;;;;;;;10.40;7.50;;;1.30;1.00;1.10;99630.00;;;;5136615;27;20438;-82
2022/04/02 01:40:15;;;;;;;7.90;7.10;;;1.00;1.00;1.10;99635.00;;;;5131242;27;20433;-79
2022/04/02 01:42:47;;;;;;;11.30;7.93;;;1.00;1.00;1.10;99646.00;;;;5101703;28;20410;-80
2022/04/02 01:45:16;;;;;;;9.60;7.10;;;1.00;1.00;1.10;99649.00;;;;5114936;28;20434;-78
2022/04/02 01:47:54;;;;;;;9.80;7.90;;;0.90;1.00;1.20;99635.00;;;;5116238;28;20416;-78
2022/04/02 01:50:28;;;;;;;8.98;8.07;;;1.10;1.00;1.20;99640.00;;;;5122207;28;20400;-79
2022/04/02 01:52:58;;;;;;;8.80;7.90;;;1.30;1.00;1.20;99623.00;;;;5113856;28;21040;-79
2022/04/02 01:55:26;;;;;;;8.40;7.50;;;1.30;1.00;1.20;99656.00;;;;5112973;28;20433;-79
2022/04/02 01:58:02;;;;;;;9.73;7.22;;;1.30;1.00;1.20;99635.00;;;;5104044;28;20433;-80
2022/04/02 02:00:36;;;;;;;8.10;6.60;;;1.30;1.00;1.20;99656.00;;;;5099195;28;20444;-79
2022/04/02 02:03:06;;;;;;;8.93;8.02;;;1.10;1.00;1.20;99653.00;;;;5095599;28;20418;-80
2022/04/02 02:05:35;;;;;;;9.90;7.90;;;1.20;1.00;1.10;99647.00;;;;5099669;27;20416;-80
2022/04/02 02:08:06;;;;;;;9.45;7.75;;;1.10;1.00;1.20;99670.00;;;;5096069;28;20499;-79
2022/04/02 02:10:57;;;;;;;11.65;8.40;;;1.20;1.00;1.20;99638.00;;;;5090620;28;20432;-79
2022/04/02 02:13:42;;;;;;;10.73;8.53;;;1.30;1.00;1.20;99652.00;;;;5094047;28;20429;-80
2022/04/02 02:16:15;;;;;;;8.32;7.10;;;1.60;1.00;1.20;99658.00;;;;5098141;27;20414;-82
2022/04/02 02:18:44;;;;;;;11.73;9.10;;;1.20;1.00;1.20;66526.00;;;;5095391;28;20412;-80
2022/04/02 02:21:13;;;;;;;11.10;8.40;;;1.30;1.00;1.30;99659.00;;;;5110250;27;20420;-83
2022/04/02 02:23:44;;;;;;;8.98;7.32;;;1.40;1.00;1.10;99667.00;;;;5109110;27;20436;-79
2022/04/02 02:26:12;;;;;;;8.57;7.67;;;1.10;1.00;1.10;99662.00;;;;5096459;28;20494;-79
2022/04/02 02:28:41;;;;;;;9.25;7.53;;;1.10;1.00;1.10;99677.00;;;;5092689;28;20767;-80
2022/04/02 02:31:17;;;;;;;9.57;6.73;;;1.10;1.00;1.00;99654.00;;;;5096815;28;20588;-80
2022/04/02 02:36:32;;;;;;;10.82;7.93;;;1.00;1.00;1.10;99668.00;;;;5109186;27;20490;-79
2022/04/02 02:39:08;;;;;;;10.32;8.05;;;1.10;1.00;1.20;99674.00;;;;5093699;28;20443;-83
2022/04/02 02:41:43;;;;;;;9.98;7.68;;;1.30;1.00;1.10;99666.00;;;;5093660;28;21052;-83
2022/04/02 02:44:23;;;;;;;10.60;8.40;;;1.10;1.00;1.10;99687.00;;;;5108381;27;20416;-79
2022/04/02 02:47:03;;;;;;;11.82;7.80;;;1.10;1.00;1.10;99681.00;;;;5092726;28;20436;-79
2022/04/02 02:49:32;;;;;;;10.68;8.45;;;1.10;1.00;217.30;157107.00;;;;5094926;28;20837;-79
2022/04/02 02:52:07;;;;;;;9.32;7.35;;;1.00;1.00;1.10;99669.00;;;;5093492;28;20468;-80
2022/04/02 02:54:38;;;;;;;10.60;9.50;;;1.10;1.00;1.00;99667.00;;;;5076993;28;20445;-81
2022/04/02 02:57:08;;;;;;;11.00;8.70;;;1.10;1.00;1.10;99661.00;;;;5077297;28;20516;-83
2022/04/02 02:59:36;;;;;;;12.00;9.90;;;1.20;1.00;1.10;66496.00;;;;5092316;28;20422;-81
2022/04/02 03:02:06;;;;;;;10.93;8.45;;;1.20;1.00;1.10;99686.00;;;;5095079;28;20435;-81
2022/04/02 03:04:34;;;;;;;12.60;8.38;;;1.10;1.00;1.10;66493.00;;;;5094039;28;20516;-81
2022/04/02 03:07:11;;;;;;;9.75;8.70;;;1.10;1.00;1.10;99675.00;;;;5110753;28;20428;-80
2022/04/02 03:09:44;;;;;;;11.00;9.43;;;1.10;1.00;1.20;99692.00;;;;5106919;28;20426;-80
2022/04/02 03:12:13;;;;;;;10.93;7.50;;;1.30;1.00;1.10;99690.00;;;;5076361;28;20450;-82
2022/04/02 03:14:42;;;;;;;10.35;9.25;;;1.10;1.00;1.00;99677.00;;;;5096274;28;20996;-80
2022/04/02 03:17:10;;;;;;;10.80;9.07;;;1.00;1.00;1.10;66493.00;;;;5110840;28;20421;-81
2022/04/02 03:19:41;;;;;;;10.88;9.25;;;1.10;1.00;217.30;157133.00;;;;5097212;28;20420;-81
2022/04/02 03:22:09;;;;;;;12.43;9.23;;;1.10;1.00;1.10;66500.00;;;;5099094;28;20497;-81
2022/04/02 03:24:37;;;;;;;11.10;9.38;;;1.10;1.00;1.10;66484.00;;;;5097315;28;20496;-81
2022/04/02 03:27:10;;;;;;;12.20;8.60;;;1.20;1.00;1.00;66477.00;;;;5100953;28;20460;-80
2022/04/02 03:29:45;;;;;;;12.10;8.60;;;1.00;1.00;1.00;99713.00;;;;5107142;27;20443;-83
2022/04/02 03:32:17;;;;;;;13.23;9.45;;;1.00;1.00;1.00;66474.00;;;;5118761;27;20466;-83
2022/04/02 03:34:45;;;;;;;10.95;8.38;;;1.00;1.00;1.00;99720.00;;;;5115901;28;20424;-83
2022/04/02 03:37:14;;;;;;;10.15;7.70;;;0.90;1.00;1.00;99718.00;;;;5108887;28;20428;-83
2022/04/02 03:39:42;;;;;;;10.18;8.00;;;1.00;1.00;1.10;99725.00;;;;5123332;28;20498;-81
2022/04/02 03:42:14;;;;;;;11.50;8.65;;;1.10;1.00;1.00;99718.00;;;;5122740;28;20431;-82
2022/04/02 03:44:43;;;;;;;9.95;8.00;;;1.00;1.00;1.00;99465.00;;;;5150758;27;20425;-81
2022/04/02 03:47:12;;;;;;;9.07;7.60;;;1.00;1.00;1.10;99737.00;;;;5132426;28;20478;-81
2022/04/02 03:49:47;;;;;;;13.07;8.40;;;1.00;1.00;217.30;157133.00;;;;5097629;28;20421;-80
2022/04/02 03:52:25;;;;;;;9.98;7.72;;;1.10;1.00;1.00;99733.00;;;;5103732;28;20430;-81
2022/04/02 03:55:01;;;;;;;10.85;8.77;;;1.10;1.00;1.00;99726.00;;;;5117811;27;20431;-80
2022/04/02 03:57:31;;;;;;;10.48;8.38;;;1.00;1.00;1.00;66469.00;;;;5116196;27;20420;-82
2022/04/02 04:00:01;;;;;;;11.82;8.90;;;0.90;1.00;1.00;99734.00;;;;5101618;28;20503;-80
2022/04/02 04:02:40;;;;;;;11.20;7.82;;;1.00;1.00;1.00;99748.00;;;;5105225;28;20470;-81
2022/04/02 04:05:14;;;;;;;9.85;8.60;;;0.80;1.00;1.00;99740.00;;;;5104164;28;20987;-80
2022/04/02 04:07:45;;;;;;;9.88;8.00;;;0.90;1.00;1.00;99743.00;;;;5096281;28;20427;-80
2022/04/02 04:10:13;;;;;;;11.00;9.38;;;0.90;1.00;1.00;66472.00;;;;5113631;27;20430;-80
2022/04/02 04:12:49;;;;;;;12.50;9.27;;;1.00;1.00;1.10;99759.00;;;;5099950;28;20481;-80
2022/04/02 04:15:24;;;;;;;11.13;9.38;;;1.10;1.00;1.00;99772.00;;;;5097955;28;20428;-81
2022/04/02 04:17:56;;;;;;;10.13;8.30;;;1.10;1.00;1.00;99749.00;;;;5097119;28;20480;-81
2022/04/02 04:20:25;;;;;;;12.32;8.40;;;1.10;1.00;1.00;99758.00;;;;5116074;27;20509;-80
2022/04/02 04:22:54;;;;;;;11.40;8.80;;;0.90;1.00;1.00;99757.00;;;;5101550;28;20452;-80
2022/04/02 04:25:24;;;;;;;11.90;9.50;;;1.10;1.00;217.30;157139.00;;;;5123268;28;20456;-80
2022/04/02 04:27:56;;;;;;;11.70;9.40;;;1.20;1.00;1.00;99767.00;;;;5121049;28;20488;-81
2022/04/02 04:30:24;;;;;;;11.13;8.75;;;1.10;1.00;0.90;66464.00;;;;5130485;28;20418;-83
2022/04/02 04:32:53;;;;;;;12.75;9.63;;;1.00;1.00;1.10;99770.00;;;;5122444;28;20424;-80
2022/04/02 04:35:21;;;;;;;11.75;10.02;;;1.30;1.00;1.00;99768.00;;;;5126664;28;20474;-82
2022/04/02 04:37:51;;;;;;;9.80;8.53;;;1.00;1.00;1.00;99768.00;;;;5120946;28;20413;-83
2022/04/02 04:40:25;;;;;;;13.68;10.73;;;1.00;1.00;217.30;157103.00;;;;5081745;28;20413;-82
2022/04/02 04:42:56;;;;;;;13.20;10.43;;;1.00;1.00;1.00;99790.00;;;;5098363;28;20428;-79
2022/04/02 04:45:34;;;;;;;10.77;8.70;;;0.90;1.00;1.00;99783.00;;;;5097863;28;21093;-80
2022/04/02 04:48:05;;;;;;;10.88;9.68;;;0.90;1.00;1.10;99786.00;;;;5112269;27;20422;-79
2022/04/02 04:50:40;;;;;;;11.40;10.20;;;1.10;1.00;1.10;99789.00;;;;5111515;27;20435;-81
2022/04/02 04:53:10;;;;;;;11.60;10.40;;;1.20;1.00;1.10;99785.00;;;;5096545;27;20619;-79
2022/04/02 04:55:39;;;;;;;12.20;10.60;;;1.20;1.00;1.10;99793.00;;;;5079354;28;20772;-80
2022/04/02 04:58:10;;;;;;;12.82;11.35;;;1.10;1.00;1.00;99792.00;;;;5093222;28;20461;-80
2022/04/02 05:00:38;;;;;;;12.50;11.20;;;1.00;1.00;1.00;66484.00;;;;5092376;28;20419;-80
2022/04/02 05:03:08;;;;;;;11.20;9.83;;;1.00;1.00;1.00;99799.00;;;;5092703;28;20848;-80
2022/04/02 05:05:41;;;;;;;12.15;10.90;;;1.00;1.00;1.00;66464.00;;;;5089926;28;20439;-80
2022/04/02 05:08:16;;;;;;;11.23;9.93;;;0.90;1.00;0.90;99800.00;;;;5111592;27;20432;-81
2022/04/02 05:10:46;;;;;;;12.52;10.40;;;0.90;1.00;217.30;157103.00;;;;5093094;28;20436;-79
2022/04/02 05:13:21;;;;;;;11.85;10.20;;;1.00;1.00;1.10;66493.00;;;;5093147;28;20836;-79
2022/04/02 05:15:53;;;;;;;11.48;10.32;;;1.20;1.00;1.10;66500.00;;;;5116483;27;20927;-80
2022/04/02 05:18:24;;;;;;;10.95;9.70;;;1.20;1.00;1.10;66503.00;;;;5101493;28;20407;-80
2022/04/02 05:20:53;;;;;;;13.63;11.20;;;1.30;1.00;1.10;99823.00;;;;5111483;28;20418;-80
2022/04/02 05:23:22;;;;;;;10.75;9.20;;;1.50;1.00;1.00;99819.00;;;;5102928;28;20770;-79
2022/04/02 05:25:55;;;;;;;12.10;10.80;;;1.40;1.00;1.00;99811.00;;;;5100250;28;20500;-79
2022/04/02 05:28:28;;;;;;;11.88;10.45;;;1.10;1.00;1.10;66500.00;;;;5105300;28;20564;-80
2022/04/02 05:30:57;;;;;;;9.85;7.80;;;1.20;1.00;217.30;157097.00;;;;5096086;28;20468;-79
2022/04/02 05:33:26;;;;;;;11.25;8.60;;;1.10;1.00;0.90;99803.00;;;;5096580;28;20416;-80
2022/04/02 05:36:08;;;;;;;10.50;8.90;;;0.80;1.00;1.00;99826.00;;;;5094435;28;20478;-79
2022/04/02 05:38:36;;;;;;;11.25;9.63;;;0.90;1.00;1.10;66500.00;;;;5089076;28;20428;-80
2022/04/02 05:41:05;;;;;;;8.73;7.17;;;1.10;1.00;1.20;66511.00;;;;5093205;28;20424;-79
2022/04/02 05:43:35;;;;;;;10.17;9.00;;;1.20;1.00;1.10;66493.00;;;;5109252;28;20416;-80
2022/04/02 05:46:03;;;;;;;9.63;8.52;;;1.10;1.00;1.10;99828.00;;;;5112213;28;20443;-79
2022/04/02 05:48:32;;;;;;;10.05;8.60;;;1.10;1.00;1.00;66477.00;;;;5096767;28;20426;-79
2022/04/02 05:51:01;;;;;;;9.30;8.13;;;1.00;1.00;217.30;157117.00;;;;5095373;28;20423;-80
2022/04/02 05:53:29;;;;;;;8.90;7.90;;;1.00;1.00;1.00;99840.00;;;;5092050;28;20450;-78
2022/04/02 05:55:58;;;;;;;9.73;7.65;;;0.90;1.00;1.10;99833.00;;;;5093646;28;20497;-79
2022/04/02 05:58:26;;;;;;;10.35;8.95;;;1.10;1.00;1.10;99842.00;;;;5098799;28;20408;-80
2022/04/02 06:00:56;;;;;;;10.70;8.73;;;1.10;1.00;1.10;66503.00;;;;5101825;28;20419;-80
2022/04/02 06:03:24;;;;;;;9.35;8.40;;;1.10;1.00;1.10;99833.00;;;;5098029;28;20416;-80
2022/04/02 06:05:53;;;;;;;12.10;9.63;;;1.00;1.00;1.10;99851.00;;;;5093946;28;20428;-79
2022/04/02 06:08:21;;;;;;;10.35;8.77;;;1.10;1.00;1.10;66500.00;;;;5095642;28;20417;-79
2022/04/02 06:10:49;;;;;;;10.97;9.87;;;1.00;1.00;1.00;99858.00;;;;5094476;28;20426;-79
2022/04/02 06:13:18;;;;;;;11.50;9.32;;;0.90;1.00;1.10;66496.00;;;;5097820;28;20424;-81
2022/04/02 06:15:47;;;;;;;10.77;9.75;;;0.90;1.00;1.20;66534.00;;;;5100486;28;20491;-80
2022/04/02 06:18:18;;;;;;;10.88;9.50;;;1.20;1.00;1.20;99851.00;;;;5108803;28;20471;-83
2022/04/02 06:20:47;;;;;;;11.32;9.52;;;1.20;1.00;1.20;99853.00;;;;5115234;28;20407;-82
2022/04/02 06:23:16;;;;;;;12.20;9.70;;;1.20;1.00;1.10;99848.00;;;;5113728;28;20419;-82
2022/04/02 06:25:45;;;;;;;11.30;10.10;;;1.10;1.00;1.20;66506.00;;;;5110348;28;20845;-83
2022/04/02 06:28:14;;;;;;;10.38;9.35;;;1.10;1.00;1.30;99896.00;;;;5108403;28;20421;-79
2022/04/02 06:30:42;;;;;;;10.63;9.23;;;1.30;1.00;1.30;66544.00;;;;5100592;28;20421;-79
2022/04/02 06:33:11;;;;;;;18.50;9.88;;;1.40;1.00;1.30;66552.00;;;;5091653;28;20426;-79
2022/04/02 06:35:41;;;;;;;11.18;9.52;;;1.40;1.00;1.40;99878.00;;;;5103974;27;20448;-79
2022/04/02 06:38:09;;;;;;;9.93;8.88;;;1.50;1.00;1.40;99902.00;;;;5093593;28;20517;-79
2022/04/02 06:40:38;;;;;;;10.98;9.88;;;1.60;1.00;217.30;157214.00;;;;5095620;27;20430;-77
2022/04/02 06:43:06;;;;;;;10.15;8.73;;;1.30;1.00;1.40;66566.00;;;;5095790;28;20430;-79
2022/04/02 06:45:49;;;;;;;9.30;8.10;;;1.50;1.00;1.40;66558.00;;;;5094359;28;21085;-79
2022/04/02 06:48:17;;;;;;;9.10;8.20;;;1.30;1.00;1.50;99918.00;;;;5099407;28;20503;-79
2022/04/02 06:50:47;;;;;;;9.82;8.40;;;1.50;1.00;1.40;66571.00;;;;5098330;28;20410;-81
2022/04/02 06:53:15;;;;;;;9.15;7.35;;;1.50;1.00;1.50;66579.00;;;;5099758;28;20928;-79
2022/04/02 06:55:45;;;;;;;8.90;8.00;;;1.50;1.00;1.60;99903.00;;;;5081674;28;20505;-80
2022/04/02 06:58:26;;;;;;;8.30;7.18;;;1.60;1.00;1.50;99919.00;;;;5099945;28;20465;-80
2022/04/02 07:00:55;;;;;;;8.70;7.43;;;1.50;1.00;52.70;157369.00;;;;5098313;28;20963;-80
2022/04/02 07:03:23;;;;;;;9.23;8.02;;;1.60;1.00;1.70;99928.00;;;;5097095;28;20498;-79
2022/04/02 07:05:53;;;;;;;8.95;7.75;;;1.80;1.00;1.70;99906.00;;;;5095921;28;20760;-78
2022/04/02 07:08:22;;;;;;;8.68;7.72;;;1.80;1.00;1.80;99889.00;;;;5096323;28;20833;-80
2022/04/02 07:10:50;;;;;;;9.05;8.25;;;1.90;1.00;1.60;99915.00;;;;5095328;28;21143;-81
2022/04/02 07:13:19;;;;;;;10.98;9.07;;;1.60;1.00;1.80;99920.00;;;;5092987;28;20428;-78
2022/04/02 07:15:47;;;;;;;8.00;6.93;;;1.70;1.00;1.70;66630.00;;;;5096792;28;20513;-78
2022/04/02 07:18:16;;;;;;;8.80;6.93;;;1.60;1.00;1.80;66651.00;;;;5101628;28;20401;-80
2022/04/02 07:20:44;;;;;;;9.13;6.10;;;1.90;1.00;1.70;99935.00;;;;5094913;28;20418;-80
2022/04/02 07:23:15;;;;;;;8.60;7.22;;;2.10;1.00;1.80;99942.00;;;;5095846;28;20486;-79
2022/04/02 07:25:48;;;;;;;8.13;6.90;;;1.90;1.00;1.70;99935.00;;;;5094439;28;20427;-79
2022/04/02 07:28:17;;;;;;;8.48;7.10;;;1.70;1.00;1.80;66640.00;;;;5093750;28;20410;-79
2022/04/02 07:30:46;;;;;;;7.63;6.22;;;1.70;1.00;1.80;66662.00;;;;5096824;28;20422;-78
2022/04/02 07:33:22;;;;;;;6.85;6.00;;;1.90;1.00;1.80;66662.00;;;;5091022;28;20422;-78
2022/04/02 07:35:59;;;;;;;7.35;6.25;;;1.90;1.00;1.90;99953.00;;;;5092952;28;20460;-79
2022/04/02 07:38:37;;;;;;;8.23;6.15;;;1.90;1.00;1.90;99954.00;;;;5094797;28;20468;-80
2022/04/02 07:41:20;;;;;;;8.20;7.00;;;1.90;1.00;1.90;99948.00;;;;5096267;28;20534;-78
2022/04/02 07:43:56;;;;;;;6.83;6.23;;;2.00;1.00;1.90;99955.00;;;;5099715;28;20486;-79
2022/04/02 07:46:29;;;;;;;7.10;6.40;;;2.10;1.00;1.90;99969.00;;;;5095438;28;20423;-79
2022/04/02 07:48:59;;;;;;;9.40;6.80;;;1.90;1.00;2.00;99955.00;;;;5080124;28;20426;-79
2022/04/02 07:51:32;;;;;;;7.93;6.38;;;2.00;1.00;1.90;99962.00;;;;5094240;28;20970;-77
2022/04/02 07:54:05;;;;;;;9.23;6.20;;;1.90;1.00;1.90;99967.00;;;;5089831;28;20952;-77
2022/04/02 07:56:38;;;;;;;7.70;6.70;;;1.90;1.00;1.90;66681.00;;;;5089589;28;20473;-79
2022/04/02 07:59:12;;;;;;;6.82;6.07;;;1.90;1.00;1.90;66687.00;;;;5086615;28;20489;-80
2022/04/02 08:01:45;;;;;;;7.00;6.30;;;2.00;1.00;2.20;99965.00;;;;5082302;28;20431;-78
2022/04/02 08:04:14;;;;;;;8.85;6.40;;;2.40;1.00;2.20;99980.00;;;;5088443;28;20433;-79
2022/04/02 08:06:44;;;;;;;7.93;6.63;;;2.10;1.00;2.30;99982.00;;;;5093977;28;20436;-77
2022/04/02 08:09:17;;;;;;;6.80;6.10;;;2.20;1.00;2.40;99983.00;;;;5094410;28;20428;-79
2022/04/02 08:11:48;;;;;;;6.50;5.80;;;2.40;1.00;2.30;99967.00;;;;5098807;28;20430;-79
2022/04/02 08:14:19;;;;;;;8.50;6.37;;;2.30;1.00;2.50;99990.00;;;;5094969;28;20434;-80
2022/04/02 08:16:49;;;;;;;8.45;6.30;;;2.50;1.00;2.30;99971.00;;;;5099422;28;20423;-79
2022/04/02 08:19:22;;;;;;;7.00;5.60;;;2.50;1.00;2.50;66795.00;;;;5105854;28;20483;-80
2022/04/02 08:22:01;;;;;;;7.35;5.70;;;2.50;1.00;2.50;100004.00;;;;5101951;28;20445;-81
2022/04/02 08:24:34;;;;;;;8.27;7.20;;;2.70;1.00;2.40;99991.00;;;;5115235;28;20434;-79
2022/04/02 08:27:05;;;;;;;8.20;6.70;;;2.50;1.00;2.40;99983.00;;;;5102914;28;20512;-80
2022/04/02 08:30:02;;;;;;;6.55;5.20;;;2.50;1.00;2.40;99980.00;;;;5113856;27;21037;-80
2022/04/02 08:32:59;;;;;;;7.90;5.00;;;2.30;1.00;2.60;99990.00;;;;5115458;27;20426;-82
2022/04/02 08:35:35;;;;;;;6.32;4.18;;;2.70;1.00;2.60;99980.00;;;;5102605;28;20425;-79
2022/04/02 08:38:15;;;;;;;7.80;4.80;;;2.70;1.00;2.80;100009.00;;;;5102545;28;20430;-80
2022/04/02 08:41:24;;;;;;;6.22;4.70;;;2.80;1.00;2.80;99981.00;;;;5105074;28;20458;-79
2022/04/02 08:45:02;;;;;;;5.60;4.60;;;2.70;1.00;2.70;100003.00;;;;5105891;28;20500;-79
2022/04/02 08:48:09;;;;;;;5.95;4.55;;;2.70;1.00;2.80;100016.00;;;;5112615;28;20422;-79
2022/04/02 08:50:46;;;;;;;6.60;4.78;;;2.80;1.00;2.90;100027.00;;;;5104640;28;20420;-82
2022/04/02 08:53:21;;;;;;;6.50;4.90;;;2.90;1.00;3.00;100029.00;;;;5100657;28;20460;-79
2022/04/02 08:55:54;;;;;;;8.70;5.20;;;3.20;1.00;2.90;100039.00;;;;5117454;28;20416;-80
2022/04/02 08:58:49;;;;;;;7.20;4.60;;;2.90;1.00;3.00;100018.00;;;;5130387;28;20446;-81
2022/04/02 09:01:27;;;;;;;5.73;4.37;;;2.90;1.00;2.90;100047.00;;;;5125133;28;20408;-81
2022/04/02 09:04:53;;;;;;;7.75;5.03;;;2.90;1.00;3.00;100054.00;;;;5121391;28;20402;-81
2022/04/02 09:08:30;;;;;;;5.78;4.40;;;2.90;1.00;3.00;100039.00;;;;5122115;28;20462;-83
2022/04/02 09:11:47;;;;;;;5.80;5.20;;;2.80;1.00;3.10;100051.00;;;;5101146;28;20400;-77
2022/04/02 09:15:04;;;;;;;7.07;5.30;;;3.10;1.00;3.20;100051.00;;;;5118926;28;20445;-81
2022/04/02 09:17:37;;;;;;;6.23;4.70;;;3.30;1.00;3.20;100051.00;;;;5086892;28;20613;-80
2022/04/02 09:20:21;;;;;;;5.60;4.47;;;3.30;1.00;3.10;66927.00;;;;5102273;28;20438;-80
2022/04/02 09:23:07;;;;;;;4.90;4.40;;;3.00;1.00;3.20;100056.00;;;;5098880;28;20514;-80
2022/04/02 09:26:20;;;;;;;7.88;4.60;;;3.10;1.00;3.20;100049.00;;;;5099435;28;20428;-79
2022/04/02 09:29:14;;;;;;;6.93;4.55;;;3.10;1.00;3.40;100040.00;;;;5080230;28;20436;-80
2022/04/02 09:32:42;;;;;;;8.77;5.40;;;3.30;1.00;3.60;100060.00;;;;5087418;28;20431;-79
2022/04/02 09:35:38;;;;;;;7.40;5.38;;;3.70;1.00;3.60;100053.00;;;;5096477;28;20509;-80
2022/04/02 09:39:06;;;;;;;5.20;4.40;;;3.60;1.00;3.40;100082.00;;;;5060983;27;20465;-81
2022/04/02 09:42:09;;;;;;;5.50;5.00;;;3.40;1.00;3.50;100053.00;;;;5067504;28;20413;-82
2022/04/02 09:44:59;;;;;;;6.10;5.20;;;3.50;1.00;3.60;100078.00;;;;5104803;28;20429;-80
2022/04/02 09:47:52;;;;;;;5.10;4.60;;;3.60;1.00;3.60;100060.00;;;;5100481;28;20523;-81
2022/04/02 09:50:22;;;;;;;7.65;5.80;;;3.50;1.00;3.60;100060.00;;;;5098497;28;20970;-81
2022/04/02 09:52:56;;;;;;;6.80;5.43;;;3.60;1.00;3.60;100080.00;;;;5112102;27;20425;-81
2022/04/02 09:55:28;;;;;;;7.70;5.97;;;3.60;1.00;3.80;100089.00;;;;5094375;28;20529;-80
2022/04/02 09:58:48;;;;;;;6.80;5.80;;;3.80;1.00;3.90;100095.00;;;;5116338;27;20410;-81
2022/04/02 10:01:30;;;;;;;7.85;6.07;;;4.00;1.00;3.90;100100.00;;;;5096757;28;20916;-82
2022/04/02 10:04:05;;;;;;;7.65;5.38;;;3.90;1.00;3.80;100095.00;;;;5095362;28;20424;-82
2022/04/02 10:06:40;;;;;;;6.82;6.22;;;3.80;1.00;3.90;100090.00;;;;5095474;28;20416;-81
2022/04/02 10:09:10;;;;;;;7.50;5.80;;;3.70;1.00;4.00;100109.00;;;;5100732;28;20413;-81
2022/04/02 10:11:53;;;;;;;7.55;6.50;;;3.90;1.00;4.20;100100.00;;;;5098678;28;20424;-83
2022/04/02 10:14:24;;;;;;;7.90;7.10;;;4.10;1.00;4.40;100088.00;;;;5097838;28;20425;-82
2022/04/02 10:16:55;;;;;;;7.20;6.20;;;4.30;1.00;4.40;100095.00;;;;5094430;28;20428;-83
2022/04/02 10:19:29;;;;;;;8.57;7.20;;;4.20;1.00;4.40;100090.00;;;;5096814;28;20419;-82
2022/04/02 10:22:03;;;;;;;7.60;6.25;;;4.30;1.00;4.40;100109.00;;;;5110487;27;20420;-81
2022/04/02 10:24:38;;;;;;;6.93;6.22;;;4.30;1.00;4.30;100102.00;;;;5098274;28;20425;-82
2022/04/02 10:27:10;;;;;;;8.63;6.30;;;4.30;1.00;4.50;100100.00;;;;5099609;28;20436;-80
2022/04/02 10:30:05;;;;;;;7.10;6.40;;;4.50;1.00;4.40;100103.00;;;;5117161;27;20506;-82
2022/04/02 10:32:57;;;;;;;8.18;6.50;;;4.30;1.00;4.50;100109.00;;;;5080454;28;20420;-83
2022/04/02 10:35:29;;;;;;;7.43;6.72;;;4.40;1.00;4.50;100111.00;;;;5102464;28;20515;-81
2022/04/02 10:38:08;;;;;;;7.00;6.00;;;4.50;1.00;4.50;100121.00;;;;5100519;28;20417;-83
2022/04/02 10:40:45;;;;;;;7.70;6.60;;;4.60;1.00;4.70;100123.00;;;;5099305;28;20430;-82
2022/04/02 10:43:26;;;;;;;8.15;6.70;;;4.50;1.00;4.90;100123.00;;;;5095006;28;20482;-82
2022/04/02 10:45:56;;;;;;;6.88;6.20;;;4.80;1.00;4.90;100135.00;;;;5094135;28;20907;-80
2022/04/02 10:48:32;;;;;;;8.10;6.85;;;4.90;1.00;5.00;100143.00;;;;5104283;27;20503;-81
2022/04/02 10:51:03;;;;;;;7.00;6.30;;;5.00;1.00;4.80;100155.00;;;;5086693;28;20484;-81
2022/04/02 10:53:33;;;;;;;7.25;5.60;;;4.80;1.00;4.50;100156.00;;;;5097417;28;20544;-79
2022/04/02 10:56:16;;;;;;;7.80;5.85;;;4.70;1.00;4.30;100140.00;;;;5098769;28;20924;-81
2022/04/02 10:58:49;;;;;;;7.40;6.70;;;4.50;1.00;4.40;100148.00;;;;5097456;28;20420;-80
2022/04/02 11:01:19;;;;;;;9.60;6.88;;;4.40;1.00;4.50;100151.00;;;;5098472;28;20924;-78
2022/04/02 11:03:54;;;;;;;7.20;6.50;;;4.50;1.00;4.60;100136.00;;;;5089448;28;20463;-77
2022/04/02 11:06:48;;;;;;;7.75;6.50;;;4.50;1.00;4.90;100150.00;;;;5088506;28;20550;-78
2022/04/02 11:09:29;;;;;;;7.20;6.40;;;4.80;1.00;5.30;100148.00;;;;5093358;28;20421;-78
2022/04/02 11:12:04;;;;;;;6.50;5.60;;;5.30;1.00;5.30;100161.00;;;;5086828;28;20452;-76
2022/04/02 11:14:42;;;;;;;6.28;5.63;;;5.30;1.00;5.20;100167.00;;;;5093325;28;20423;-78
2022/04/02 11:17:28;;;;;;;5.88;5.38;;;5.20;1.00;5.10;100152.00;;;;5105590;28;20420;-80
2022/04/02 11:20:04;;;;;;;6.57;5.78;;;4.90;1.00;5.30;100145.00;;;;5092806;28;20425;-79
2022/04/02 11:22:48;;;;;;;7.43;6.28;;;5.10;1.00;5.60;100157.00;;;;5091138;28;20419;-80
2022/04/02 11:25:23;;;;;;;6.55;5.53;;;5.50;1.00;5.50;100166.00;;;;5088689;28;20955;-80
2022/04/02 11:27:54;;;;;;;7.15;5.70;;;5.40;1.00;5.40;100174.00;;;;5091788;28;20457;-80
2022/04/02 11:30:28;;;;;;;6.30;5.70;;;5.30;1.00;5.40;100154.00;;;;5094638;28;20421;-82
2022/04/02 11:33:05;;;;;;;6.07;5.32;;;5.30;1.00;5.20;100164.00;;;;5097138;28;20509;-80
2022/04/02 11:35:39;;;;;;;8.68;6.60;;;5.10;1.00;5.20;100147.00;;;;5089544;28;20923;-80
2022/04/02 11:38:34;;;;;;;6.68;6.00;;;5.00;1.00;5.50;100167.00;;;;5095554;28;20414;-81
2022/04/02 11:41:21;;;;;;;6.00;5.40;;;5.40;1.00;5.80;100178.00;;;;5097356;28;20491;-80
2022/04/02 11:43:53;;;;;;;7.63;5.88;;;5.70;1.00;5.60;100175.00;;;;5094166;28;20503;-80
2022/04/02 11:46:23;;;;;;;6.35;5.53;;;5.50;1.00;5.70;100180.00;;;;5096292;28;20416;-80
2022/04/02 11:48:54;;;;;;;6.47;5.00;;;5.60;1.00;5.30;100173.00;;;;5096512;28;20426;-79
2022/04/02 11:51:26;;;;;;;7.10;5.68;;;5.30;1.00;5.30;100185.00;;;;5101820;28;20430;-80
2022/04/02 11:54:04;;;;;;;5.90;5.30;;;5.10;1.00;5.40;100178.00;;;;5103556;27;20904;-81
2022/04/02 11:56:35;;;;;;;6.18;5.40;;;5.50;1.00;5.50;100179.00;;;;5107168;28;20495;-81